sensor_id;sensor_type;location;lat;lon;timestamp;P1;durP1;ratioP1;P2;durP2;ratioP2
29362;SDS011;16349;53.672;10.014;2023-04-06T00:00:44;4.93;;;3.63;;
29362;SDS011;16349;53.672;10.014;2023-04-06T00:03:11;3.70;;;3.23;;
29362;SDS011;16349;53.672;10.014;2023-04-06T00:05:38;4.23;;;3.33;;
29362;SDS011;16349;53.672;10.014;2023-04-06T00:08:06;5.10;;;3.60;;
29362;SDS011;16349;53.672;10.014;2023-04-06T00:10:33;5.27;;;3.23;;
29362;SDS011;16349;53.672;10.014;2023-04-06T00:13:01;5.53;;;3.33;;
29362;SDS011;16349;53.672;10.014;2023-04-06T00:15:28;5.93;;;3.80;;
29362;SDS011;16349;53.672;10.014;2023-04-06T00:17:55;3.40;;;3.03;;
29362;SDS011;16349;53.672;10.014;2023-04-06T00:20:22;4.40;;;3.20;;
29362;SDS011;16349;53.672;10.014;2023-04-06T00:22:49;3.70;;;3.20;;
29362;SDS011;16349;53.672;10.014;2023-04-06T00:25:16;4.43;;;3.47;;
29362;SDS011;16349;53.672;10.014;2023-04-06T00:27:42;3.67;;;3.07;;
29362;SDS011;16349;53.672;10.014;2023-04-06T00:30:11;4.93;;;3.50;;
29362;SDS011;16349;53.672;10.014;2023-04-06T00:32:38;5.00;;;4.00;;
29362;SDS011;16349;53.672;10.014;2023-04-06T00:35:06;4.10;;;3.30;;
29362;SDS011;16349;53.672;10.014;2023-04-06T00:37:34;4.37;;;3.40;;
29362;SDS011;16349;53.672;10.014;2023-04-06T00:40:01;4.67;;;3.30;;
29362;SDS011;16349;53.672;10.014;2023-04-06T00:42:28;4.13;;;3.30;;
29362;SDS011;16349;53.672;10.014;2023-04-06T00:44:56;4.27;;;3.67;;
29362;SDS011;16349;53.672;10.014;2023-04-06T00:47:26;6.57;;;3.63;;
29362;SDS011;16349;53.672;10.014;2023-04-06T00:49:54;4.13;;;3.03;;
29362;SDS011;16349;53.672;10.014;2023-04-06T00:52:21;5.20;;;3.13;;
29362;SDS011;16349;53.672;10.014;2023-04-06T00:54:48;4.90;;;4.00;;
29362;SDS011;16349;53.672;10.014;2023-04-06T00:57:17;5.50;;;3.57;;
29362;SDS011;16349;53.672;10.014;2023-04-06T00:59:46;6.23;;;3.57;;
29362;SDS011;16349;53.672;10.014;2023-04-06T01:02:13;4.33;;;3.70;;
29362;SDS011;16349;53.672;10.014;2023-04-06T01:04:47;5.37;;;3.63;;
29362;SDS011;16349;53.672;10.014;2023-04-06T01:07:22;5.50;;;4.07;;
29362;SDS011;16349;53.672;10.014;2023-04-06T01:10:22;4.00;;;3.60;;
29362;SDS011;16349;53.672;10.014;2023-04-06T01:12:52;3.70;;;3.40;;
29362;SDS011;16349;53.672;10.014;2023-04-06T01:15:37;4.03;;;3.33;;
29362;SDS011;16349;53.672;10.014;2023-04-06T01:18:07;4.47;;;3.37;;
29362;SDS011;16349;53.672;10.014;2023-04-06T01:20:41;3.57;;;3.17;;
29362;SDS011;16349;53.672;10.014;2023-04-06T01:23:10;6.43;;;3.67;;
29362;SDS011;16349;53.672;10.014;2023-04-06T01:25:43;4.50;;;3.90;;
29362;SDS011;16349;53.672;10.014;2023-04-06T01:28:32;4.53;;;3.97;;
29362;SDS011;16349;53.672;10.014;2023-04-06T01:31:09;4.53;;;3.63;;
29362;SDS011;16349;53.672;10.014;2023-04-06T01:33:58;4.27;;;3.87;;
29362;SDS011;16349;53.672;10.014;2023-04-06T01:36:25;3.40;;;3.10;;
29362;SDS011;16349;53.672;10.014;2023-04-06T01:39:03;4.53;;;3.80;;
29362;SDS011;16349;53.672;10.014;2023-04-06T01:41:34;3.90;;;3.50;;
29362;SDS011;16349;53.672;10.014;2023-04-06T01:44:02;5.73;;;3.50;;
29362;SDS011;16349;53.672;10.014;2023-04-06T01:46:30;4.33;;;3.50;;
29362;SDS011;16349;53.672;10.014;2023-04-06T01:48:59;4.43;;;4.00;;
29362;SDS011;16349;53.672;10.014;2023-04-06T01:51:34;4.50;;;3.57;;
29362;SDS011;16349;53.672;10.014;2023-04-06T01:54:05;4.07;;;3.40;;
29362;SDS011;16349;53.672;10.014;2023-04-06T01:56:46;3.93;;;3.57;;
29362;SDS011;16349;53.672;10.014;2023-04-06T01:59:26;5.07;;;3.63;;
29362;SDS011;16349;53.672;10.014;2023-04-06T02:01:54;5.67;;;4.20;;
29362;SDS011;16349;53.672;10.014;2023-04-06T02:04:24;7.37;;;3.80;;
29362;SDS011;16349;53.672;10.014;2023-04-06T02:07:05;5.10;;;4.00;;
29362;SDS011;16349;53.672;10.014;2023-04-06T02:09:33;3.80;;;3.50;;
29362;SDS011;16349;53.672;10.014;2023-04-06T02:12:01;6.20;;;3.80;;
29362;SDS011;16349;53.672;10.014;2023-04-06T02:14:32;4.70;;;4.10;;
29362;SDS011;16349;53.672;10.014;2023-04-06T02:16:59;5.03;;;3.77;;
29362;SDS011;16349;53.672;10.014;2023-04-06T02:19:26;5.57;;;4.23;;
29362;SDS011;16349;53.672;10.014;2023-04-06T02:21:53;4.67;;;3.70;;
29362;SDS011;16349;53.672;10.014;2023-04-06T02:24:20;6.80;;;3.47;;
29362;SDS011;16349;53.672;10.014;2023-04-06T02:26:48;5.13;;;3.73;;
29362;SDS011;16349;53.672;10.014;2023-04-06T02:29:15;5.00;;;3.53;;
29362;SDS011;16349;53.672;10.014;2023-04-06T02:31:43;5.53;;;4.03;;
29362;SDS011;16349;53.672;10.014;2023-04-06T02:34:10;5.20;;;3.87;;
29362;SDS011;16349;53.672;10.014;2023-04-06T02:36:46;4.67;;;3.87;;
29362;SDS011;16349;53.672;10.014;2023-04-06T02:39:13;7.23;;;4.23;;
29362;SDS011;16349;53.672;10.014;2023-04-06T02:41:41;6.13;;;3.57;;
29362;SDS011;16349;53.672;10.014;2023-04-06T02:44:10;4.80;;;3.67;;
29362;SDS011;16349;53.672;10.014;2023-04-06T02:46:42;4.63;;;3.60;;
29362;SDS011;16349;53.672;10.014;2023-04-06T02:49:09;4.63;;;3.37;;
29362;SDS011;16349;53.672;10.014;2023-04-06T02:51:38;4.47;;;3.80;;
29362;SDS011;16349;53.672;10.014;2023-04-06T02:54:15;9.93;;;4.27;;
29362;SDS011;16349;53.672;10.014;2023-04-06T02:56:42;5.93;;;4.23;;
29362;SDS011;16349;53.672;10.014;2023-04-06T02:59:11;5.90;;;4.33;;
29362;SDS011;16349;53.672;10.014;2023-04-06T03:01:41;8.40;;;4.10;;
29362;SDS011;16349;53.672;10.014;2023-04-06T03:04:08;7.27;;;4.40;;
29362;SDS011;16349;53.672;10.014;2023-04-06T03:06:36;5.93;;;4.53;;
29362;SDS011;16349;53.672;10.014;2023-04-06T03:09:12;4.40;;;4.00;;
29362;SDS011;16349;53.672;10.014;2023-04-06T03:11:42;5.47;;;4.10;;
29362;SDS011;16349;53.672;10.014;2023-04-06T03:14:10;8.50;;;4.23;;
29362;SDS011;16349;53.672;10.014;2023-04-06T03:16:37;4.67;;;3.90;;
29362;SDS011;16349;53.672;10.014;2023-04-06T03:19:04;5.70;;;4.57;;
29362;SDS011;16349;53.672;10.014;2023-04-06T03:21:33;7.77;;;4.20;;
29362;SDS011;16349;53.672;10.014;2023-04-06T03:24:01;7.90;;;4.53;;
29362;SDS011;16349;53.672;10.014;2023-04-06T03:26:28;6.40;;;4.83;;
29362;SDS011;16349;53.672;10.014;2023-04-06T03:28:57;4.70;;;4.07;;
29362;SDS011;16349;53.672;10.014;2023-04-06T03:31:30;6.33;;;4.97;;
29362;SDS011;16349;53.672;10.014;2023-04-06T03:34:18;4.63;;;3.87;;
29362;SDS011;16349;53.672;10.014;2023-04-06T03:36:45;5.03;;;4.10;;
29362;SDS011;16349;53.672;10.014;2023-04-06T03:39:13;4.80;;;4.17;;
29362;SDS011;16349;53.672;10.014;2023-04-06T03:41:42;5.23;;;3.87;;
29362;SDS011;16349;53.672;10.014;2023-04-06T03:44:30;7.53;;;4.73;;
29362;SDS011;16349;53.672;10.014;2023-04-06T03:46:58;7.03;;;4.47;;
29362;SDS011;16349;53.672;10.014;2023-04-06T03:49:25;5.23;;;4.17;;
29362;SDS011;16349;53.672;10.014;2023-04-06T03:51:55;8.27;;;4.90;;
29362;SDS011;16349;53.672;10.014;2023-04-06T03:54:22;7.13;;;4.83;;
29362;SDS011;16349;53.672;10.014;2023-04-06T03:56:50;6.43;;;4.13;;
29362;SDS011;16349;53.672;10.014;2023-04-06T03:59:16;6.40;;;4.40;;
29362;SDS011;16349;53.672;10.014;2023-04-06T04:01:44;7.10;;;4.53;;
29362;SDS011;16349;53.672;10.014;2023-04-06T04:04:12;7.00;;;4.90;;
29362;SDS011;16349;53.672;10.014;2023-04-06T04:06:39;6.07;;;4.30;;
29362;SDS011;16349;53.672;10.014;2023-04-06T04:09:07;5.63;;;4.13;;
29362;SDS011;16349;53.672;10.014;2023-04-06T04:11:33;8.67;;;4.73;;
29362;SDS011;16349;53.672;10.014;2023-04-06T04:14:01;8.80;;;4.23;;
29362;SDS011;16349;53.672;10.014;2023-04-06T04:16:27;10.50;;;5.17;;
29362;SDS011;16349;53.672;10.014;2023-04-06T04:18:55;6.30;;;4.33;;
29362;SDS011;16349;53.672;10.014;2023-04-06T04:21:25;6.30;;;4.57;;
29362;SDS011;16349;53.672;10.014;2023-04-06T04:23:52;9.47;;;5.10;;
29362;SDS011;16349;53.672;10.014;2023-04-06T04:26:18;7.70;;;5.00;;
29362;SDS011;16349;53.672;10.014;2023-04-06T04:28:45;6.07;;;4.43;;
29362;SDS011;16349;53.672;10.014;2023-04-06T04:31:13;6.07;;;4.20;;
29362;SDS011;16349;53.672;10.014;2023-04-06T04:34:00;6.93;;;4.60;;
29362;SDS011;16349;53.672;10.014;2023-04-06T04:36:33;8.17;;;4.83;;
29362;SDS011;16349;53.672;10.014;2023-04-06T04:39:04;6.60;;;4.50;;
29362;SDS011;16349;53.672;10.014;2023-04-06T04:41:36;11.03;;;4.47;;
29362;SDS011;16349;53.672;10.014;2023-04-06T04:44:07;7.07;;;4.63;;
29362;SDS011;16349;53.672;10.014;2023-04-06T04:46:34;7.10;;;5.07;;
29362;SDS011;16349;53.672;10.014;2023-04-06T04:49:01;10.53;;;5.27;;
29362;SDS011;16349;53.672;10.014;2023-04-06T04:51:29;8.17;;;4.70;;
29362;SDS011;16349;53.672;10.014;2023-04-06T04:54:22;5.70;;;4.50;;
29362;SDS011;16349;53.672;10.014;2023-04-06T04:56:49;11.80;;;4.63;;
29362;SDS011;16349;53.672;10.014;2023-04-06T04:59:27;6.13;;;4.63;;
29362;SDS011;16349;53.672;10.014;2023-04-06T05:02:00;6.87;;;4.27;;
29362;SDS011;16349;53.672;10.014;2023-04-06T05:04:37;6.33;;;4.70;;
29362;SDS011;16349;53.672;10.014;2023-04-06T05:07:08;8.23;;;5.07;;
29362;SDS011;16349;53.672;10.014;2023-04-06T05:09:39;8.07;;;5.23;;
29362;SDS011;16349;53.672;10.014;2023-04-06T05:12:06;6.87;;;4.53;;
29362;SDS011;16349;53.672;10.014;2023-04-06T05:14:42;4.70;;;3.93;;
29362;SDS011;16349;53.672;10.014;2023-04-06T05:17:13;7.17;;;4.70;;
29362;SDS011;16349;53.672;10.014;2023-04-06T05:19:40;8.27;;;5.10;;
29362;SDS011;16349;53.672;10.014;2023-04-06T05:22:08;5.57;;;5.03;;
29362;SDS011;16349;53.672;10.014;2023-04-06T05:24:40;7.40;;;4.77;;
29362;SDS011;16349;53.672;10.014;2023-04-06T05:27:07;13.17;;;5.67;;
29362;SDS011;16349;53.672;10.014;2023-04-06T05:29:34;7.77;;;4.80;;
29362;SDS011;16349;53.672;10.014;2023-04-06T05:32:02;6.10;;;5.00;;
29362;SDS011;16349;53.672;10.014;2023-04-06T05:34:29;7.57;;;5.53;;
29362;SDS011;16349;53.672;10.014;2023-04-06T05:37:00;8.83;;;5.27;;
29362;SDS011;16349;53.672;10.014;2023-04-06T05:39:27;6.27;;;4.90;;
29362;SDS011;16349;53.672;10.014;2023-04-06T05:41:55;10.60;;;5.03;;
29362;SDS011;16349;53.672;10.014;2023-04-06T05:44:33;8.03;;;5.00;;
29362;SDS011;16349;53.672;10.014;2023-04-06T05:47:06;7.57;;;5.23;;
29362;SDS011;16349;53.672;10.014;2023-04-06T05:49:37;12.20;;;6.30;;
29362;SDS011;16349;53.672;10.014;2023-04-06T05:52:10;8.83;;;6.27;;
29362;SDS011;16349;53.672;10.014;2023-04-06T05:54:38;9.43;;;6.00;;
29362;SDS011;16349;53.672;10.014;2023-04-06T05:57:06;7.23;;;5.70;;
29362;SDS011;16349;53.672;10.014;2023-04-06T05:59:33;6.87;;;6.07;;
29362;SDS011;16349;53.672;10.014;2023-04-06T06:02:00;8.47;;;6.23;;
29362;SDS011;16349;53.672;10.014;2023-04-06T06:04:32;9.53;;;6.47;;
29362;SDS011;16349;53.672;10.014;2023-04-06T06:06:59;10.43;;;7.03;;
29362;SDS011;16349;53.672;10.014;2023-04-06T06:09:32;8.83;;;6.77;;
29362;SDS011;16349;53.672;10.014;2023-04-06T06:12:13;10.03;;;6.80;;
29362;SDS011;16349;53.672;10.014;2023-04-06T06:14:58;10.03;;;6.50;;
29362;SDS011;16349;53.672;10.014;2023-04-06T06:17:26;11.93;;;6.83;;
29362;SDS011;16349;53.672;10.014;2023-04-06T06:19:54;12.23;;;6.83;;
29362;SDS011;16349;53.672;10.014;2023-04-06T06:22:21;9.50;;;6.70;;
29362;SDS011;16349;53.672;10.014;2023-04-06T06:24:49;10.90;;;7.13;;
29362;SDS011;16349;53.672;10.014;2023-04-06T06:27:19;9.67;;;6.70;;
29362;SDS011;16349;53.672;10.014;2023-04-06T06:29:46;12.80;;;7.37;;
29362;SDS011;16349;53.672;10.014;2023-04-06T06:32:13;8.70;;;7.03;;
29362;SDS011;16349;53.672;10.014;2023-04-06T06:34:41;9.40;;;6.57;;
29362;SDS011;16349;53.672;10.014;2023-04-06T06:37:09;9.10;;;7.40;;
29362;SDS011;16349;53.672;10.014;2023-04-06T06:39:37;11.43;;;7.97;;
29362;SDS011;16349;53.672;10.014;2023-04-06T06:42:04;12.53;;;7.47;;
29362;SDS011;16349;53.672;10.014;2023-04-06T06:44:53;11.50;;;7.33;;
29362;SDS011;16349;53.672;10.014;2023-04-06T06:47:20;8.23;;;7.23;;
29362;SDS011;16349;53.672;10.014;2023-04-06T06:49:46;9.87;;;7.30;;
29362;SDS011;16349;53.672;10.014;2023-04-06T06:52:14;11.27;;;7.90;;
29362;SDS011;16349;53.672;10.014;2023-04-06T06:54:40;9.07;;;6.93;;
29362;SDS011;16349;53.672;10.014;2023-04-06T06:57:07;8.13;;;7.30;;
29362;SDS011;16349;53.672;10.014;2023-04-06T06:59:34;12.33;;;7.57;;
29362;SDS011;16349;53.672;10.014;2023-04-06T07:02:03;8.00;;;7.20;;
29362;SDS011;16349;53.672;10.014;2023-04-06T07:04:30;9.53;;;6.83;;
29362;SDS011;16349;53.672;10.014;2023-04-06T07:06:56;7.97;;;6.83;;
29362;SDS011;16349;53.672;10.014;2023-04-06T07:09:24;8.17;;;6.03;;
29362;SDS011;16349;53.672;10.014;2023-04-06T07:11:51;7.60;;;6.83;;
29362;SDS011;16349;53.672;10.014;2023-04-06T07:14:19;7.57;;;6.30;;
29362;SDS011;16349;53.672;10.014;2023-04-06T07:16:47;6.93;;;6.10;;
29362;SDS011;16349;53.672;10.014;2023-04-06T07:19:16;6.63;;;5.70;;
29362;SDS011;16349;53.672;10.014;2023-04-06T07:21:43;9.27;;;6.70;;
29362;SDS011;16349;53.672;10.014;2023-04-06T07:24:11;7.53;;;6.27;;
29362;SDS011;16349;53.672;10.014;2023-04-06T07:26:37;7.40;;;6.27;;
29362;SDS011;16349;53.672;10.014;2023-04-06T07:29:04;9.43;;;6.00;;
29362;SDS011;16349;53.672;10.014;2023-04-06T07:31:31;8.73;;;6.03;;
29362;SDS011;16349;53.672;10.014;2023-04-06T07:33:59;7.30;;;5.30;;
29362;SDS011;16349;53.672;10.014;2023-04-06T07:36:27;6.07;;;5.33;;
29362;SDS011;16349;53.672;10.014;2023-04-06T07:38:55;6.30;;;5.30;;
29362;SDS011;16349;53.672;10.014;2023-04-06T07:41:22;8.07;;;5.90;;
29362;SDS011;16349;53.672;10.014;2023-04-06T07:43:49;4.53;;;4.13;;
29362;SDS011;16349;53.672;10.014;2023-04-06T07:46:16;5.63;;;4.50;;
29362;SDS011;16349;53.672;10.014;2023-04-06T07:48:43;5.53;;;4.30;;
29362;SDS011;16349;53.672;10.014;2023-04-06T07:51:10;5.10;;;4.70;;
29362;SDS011;16349;53.672;10.014;2023-04-06T07:53:41;7.03;;;4.33;;
29362;SDS011;16349;53.672;10.014;2023-04-06T07:56:07;5.30;;;4.07;;
29362;SDS011;16349;53.672;10.014;2023-04-06T07:58:35;5.47;;;4.00;;
29362;SDS011;16349;53.672;10.014;2023-04-06T08:01:01;4.60;;;3.53;;
29362;SDS011;16349;53.672;10.014;2023-04-06T08:03:28;5.60;;;4.00;;
29362;SDS011;16349;53.672;10.014;2023-04-06T08:05:55;4.10;;;3.70;;
29362;SDS011;16349;53.672;10.014;2023-04-06T08:08:21;5.90;;;3.73;;
29362;SDS011;16349;53.672;10.014;2023-04-06T08:10:50;4.47;;;3.40;;
29362;SDS011;16349;53.672;10.014;2023-04-06T08:13:17;4.10;;;3.60;;
29362;SDS011;16349;53.672;10.014;2023-04-06T08:15:44;5.03;;;3.40;;
29362;SDS011;16349;53.672;10.014;2023-04-06T08:18:11;3.83;;;3.00;;
29362;SDS011;16349;53.672;10.014;2023-04-06T08:20:39;3.97;;;3.57;;
29362;SDS011;16349;53.672;10.014;2023-04-06T08:23:05;4.77;;;3.30;;
29362;SDS011;16349;53.672;10.014;2023-04-06T08:25:34;4.00;;;3.70;;
29362;SDS011;16349;53.672;10.014;2023-04-06T08:28:03;3.27;;;2.97;;
29362;SDS011;16349;53.672;10.014;2023-04-06T08:30:31;5.87;;;3.70;;
29362;SDS011;16349;53.672;10.014;2023-04-06T08:32:57;4.57;;;3.10;;
29362;SDS011;16349;53.672;10.014;2023-04-06T08:35:24;4.40;;;3.43;;
29362;SDS011;16349;53.672;10.014;2023-04-06T08:37:53;3.97;;;3.07;;
29362;SDS011;16349;53.672;10.014;2023-04-06T08:40:19;4.60;;;2.77;;
29362;SDS011;16349;53.672;10.014;2023-04-06T08:42:50;4.50;;;3.30;;
29362;SDS011;16349;53.672;10.014;2023-04-06T08:45:21;3.10;;;2.70;;
29362;SDS011;16349;53.672;10.014;2023-04-06T08:47:49;6.33;;;3.37;;
29362;SDS011;16349;53.672;10.014;2023-04-06T08:50:17;4.20;;;3.40;;
29362;SDS011;16349;53.672;10.014;2023-04-06T08:52:45;5.37;;;3.10;;
29362;SDS011;16349;53.672;10.014;2023-04-06T08:55:13;3.70;;;3.00;;
29362;SDS011;16349;53.672;10.014;2023-04-06T08:57:40;3.57;;;3.27;;
29362;SDS011;16349;53.672;10.014;2023-04-06T09:00:09;4.50;;;3.20;;
29362;SDS011;16349;53.672;10.014;2023-04-06T09:02:39;3.37;;;2.93;;
29362;SDS011;16349;53.672;10.014;2023-04-06T09:05:07;3.77;;;2.70;;
29362;SDS011;16349;53.672;10.014;2023-04-06T09:07:35;4.87;;;2.80;;
29362;SDS011;16349;53.672;10.014;2023-04-06T09:10:02;4.10;;;2.40;;
29362;SDS011;16349;53.672;10.014;2023-04-06T09:12:30;2.83;;;2.60;;
29362;SDS011;16349;53.672;10.014;2023-04-06T09:14:58;2.60;;;2.40;;
29362;SDS011;16349;53.672;10.014;2023-04-06T09:17:25;4.10;;;2.40;;
29362;SDS011;16349;53.672;10.014;2023-04-06T09:19:55;3.97;;;2.77;;
29362;SDS011;16349;53.672;10.014;2023-04-06T09:22:22;4.20;;;2.90;;
29362;SDS011;16349;53.672;10.014;2023-04-06T09:24:52;3.90;;;2.70;;
29362;SDS011;16349;53.672;10.014;2023-04-06T09:27:29;3.57;;;2.67;;
29362;SDS011;16349;53.672;10.014;2023-04-06T09:30:02;3.23;;;2.30;;
29362;SDS011;16349;53.672;10.014;2023-04-06T09:32:30;3.77;;;2.40;;
29362;SDS011;16349;53.672;10.014;2023-04-06T09:35:06;3.33;;;2.67;;
29362;SDS011;16349;53.672;10.014;2023-04-06T09:37:34;5.07;;;2.80;;
29362;SDS011;16349;53.672;10.014;2023-04-06T09:40:02;3.10;;;2.63;;
29362;SDS011;16349;53.672;10.014;2023-04-06T09:42:30;4.20;;;2.50;;
29362;SDS011;16349;53.672;10.014;2023-04-06T09:44:57;2.73;;;2.53;;
29362;SDS011;16349;53.672;10.014;2023-04-06T09:47:24;5.70;;;3.10;;
29362;SDS011;16349;53.672;10.014;2023-04-06T09:49:56;2.77;;;2.47;;
29362;SDS011;16349;53.672;10.014;2023-04-06T09:52:26;2.93;;;2.67;;
29362;SDS011;16349;53.672;10.014;2023-04-06T09:54:59;4.10;;;3.03;;
29362;SDS011;16349;53.672;10.014;2023-04-06T09:57:29;3.67;;;3.03;;
29362;SDS011;16349;53.672;10.014;2023-04-06T10:00:02;4.00;;;2.73;;
29362;SDS011;16349;53.672;10.014;2023-04-06T10:02:39;3.07;;;2.30;;
29362;SDS011;16349;53.672;10.014;2023-04-06T10:05:13;3.40;;;2.53;;
29362;SDS011;16349;53.672;10.014;2023-04-06T10:07:51;3.00;;;2.70;;
29362;SDS011;16349;53.672;10.014;2023-04-06T10:10:22;3.70;;;3.07;;
29362;SDS011;16349;53.672;10.014;2023-04-06T10:12:48;5.20;;;3.40;;
29362;SDS011;16349;53.672;10.014;2023-04-06T10:15:16;3.63;;;2.80;;
29362;SDS011;16349;53.672;10.014;2023-04-06T10:17:42;4.43;;;3.50;;
29362;SDS011;16349;53.672;10.014;2023-04-06T10:20:11;4.83;;;3.03;;
29362;SDS011;16349;53.672;10.014;2023-04-06T10:22:43;3.60;;;3.30;;
29362;SDS011;16349;53.672;10.014;2023-04-06T10:25:26;4.67;;;3.87;;
29362;SDS011;16349;53.672;10.014;2023-04-06T10:28:01;3.83;;;3.00;;
29362;SDS011;16349;53.672;10.014;2023-04-06T10:30:31;4.53;;;3.17;;
29362;SDS011;16349;53.672;10.014;2023-04-06T10:32:59;4.33;;;3.13;;
29362;SDS011;16349;53.672;10.014;2023-04-06T10:35:36;4.23;;;3.33;;
29362;SDS011;16349;53.672;10.014;2023-04-06T10:38:04;2.83;;;2.60;;
29362;SDS011;16349;53.672;10.014;2023-04-06T10:40:35;3.20;;;2.90;;
29362;SDS011;16349;53.672;10.014;2023-04-06T10:43:09;3.40;;;2.90;;
29362;SDS011;16349;53.672;10.014;2023-04-06T10:45:37;3.40;;;2.93;;
29362;SDS011;16349;53.672;10.014;2023-04-06T10:48:14;4.33;;;2.90;;
29362;SDS011;16349;53.672;10.014;2023-04-06T10:50:43;4.50;;;2.63;;
29362;SDS011;16349;53.672;10.014;2023-04-06T10:53:10;3.07;;;2.77;;
29362;SDS011;16349;53.672;10.014;2023-04-06T10:55:39;4.37;;;3.23;;
29362;SDS011;16349;53.672;10.014;2023-04-06T10:58:08;3.70;;;3.37;;
29362;SDS011;16349;53.672;10.014;2023-04-06T11:00:34;6.20;;;3.67;;
29362;SDS011;16349;53.672;10.014;2023-04-06T11:03:01;4.90;;;3.33;;
29362;SDS011;16349;53.672;10.014;2023-04-06T11:05:28;7.33;;;3.83;;
29362;SDS011;16349;53.672;10.014;2023-04-06T11:07:55;4.47;;;4.07;;
29362;SDS011;16349;53.672;10.014;2023-04-06T11:10:22;5.73;;;4.30;;
29362;SDS011;16349;53.672;10.014;2023-04-06T11:12:54;4.87;;;4.23;;
29362;SDS011;16349;53.672;10.014;2023-04-06T11:15:21;4.50;;;4.07;;
29362;SDS011;16349;53.672;10.014;2023-04-06T11:17:48;5.37;;;4.80;;
29362;SDS011;16349;53.672;10.014;2023-04-06T11:20:16;5.47;;;4.03;;
29362;SDS011;16349;53.672;10.014;2023-04-06T11:22:47;6.93;;;4.40;;
29362;SDS011;16349;53.672;10.014;2023-04-06T11:25:15;5.40;;;4.57;;
29362;SDS011;16349;53.672;10.014;2023-04-06T11:27:42;5.30;;;4.77;;
29362;SDS011;16349;53.672;10.014;2023-04-06T11:30:12;6.47;;;4.40;;
29362;SDS011;16349;53.672;10.014;2023-04-06T11:32:40;5.43;;;4.70;;
29362;SDS011;16349;53.672;10.014;2023-04-06T11:35:10;5.33;;;4.60;;
29362;SDS011;16349;53.672;10.014;2023-04-06T11:37:37;7.23;;;4.50;;
29362;SDS011;16349;53.672;10.014;2023-04-06T11:40:07;5.57;;;4.50;;
29362;SDS011;16349;53.672;10.014;2023-04-06T11:42:35;6.57;;;5.03;;
29362;SDS011;16349;53.672;10.014;2023-04-06T11:45:03;5.80;;;5.10;;
29362;SDS011;16349;53.672;10.014;2023-04-06T11:47:32;5.63;;;5.10;;
29362;SDS011;16349;53.672;10.014;2023-04-06T11:50:05;6.63;;;5.23;;
29362;SDS011;16349;53.672;10.014;2023-04-06T11:52:32;6.47;;;5.10;;
29362;SDS011;16349;53.672;10.014;2023-04-06T11:54:58;7.87;;;5.03;;
29362;SDS011;16349;53.672;10.014;2023-04-06T11:57:37;6.80;;;5.20;;
29362;SDS011;16349;53.672;10.014;2023-04-06T12:00:05;5.87;;;5.10;;
29362;SDS011;16349;53.672;10.014;2023-04-06T12:02:33;6.27;;;5.53;;
29362;SDS011;16349;53.672;10.014;2023-04-06T12:05:01;7.27;;;5.60;;
29362;SDS011;16349;53.672;10.014;2023-04-06T12:07:30;8.17;;;5.33;;
29362;SDS011;16349;53.672;10.014;2023-04-06T12:10:00;6.43;;;5.17;;
29362;SDS011;16349;53.672;10.014;2023-04-06T12:12:28;6.30;;;5.37;;
29362;SDS011;16349;53.672;10.014;2023-04-06T12:14:56;7.40;;;5.10;;
29362;SDS011;16349;53.672;10.014;2023-04-06T12:17:23;7.77;;;5.83;;
29362;SDS011;16349;53.672;10.014;2023-04-06T12:19:51;7.07;;;5.27;;
29362;SDS011;16349;53.672;10.014;2023-04-06T12:22:18;6.77;;;5.37;;
29362;SDS011;16349;53.672;10.014;2023-04-06T12:24:45;7.67;;;5.60;;
29362;SDS011;16349;53.672;10.014;2023-04-06T12:27:12;6.83;;;4.70;;
29362;SDS011;16349;53.672;10.014;2023-04-06T12:29:39;7.00;;;4.77;;
29362;SDS011;16349;53.672;10.014;2023-04-06T12:32:06;7.43;;;4.67;;
29362;SDS011;16349;53.672;10.014;2023-04-06T12:34:33;6.30;;;5.10;;
29362;SDS011;16349;53.672;10.014;2023-04-06T12:37:02;5.30;;;4.80;;
29362;SDS011;16349;53.672;10.014;2023-04-06T12:39:29;6.50;;;5.13;;
29362;SDS011;16349;53.672;10.014;2023-04-06T12:41:56;8.20;;;5.10;;
29362;SDS011;16349;53.672;10.014;2023-04-06T12:44:23;6.10;;;5.10;;
29362;SDS011;16349;53.672;10.014;2023-04-06T12:46:50;7.43;;;4.80;;
29362;SDS011;16349;53.672;10.014;2023-04-06T12:49:17;5.30;;;4.80;;
29362;SDS011;16349;53.672;10.014;2023-04-06T12:51:45;5.63;;;4.90;;
29362;SDS011;16349;53.672;10.014;2023-04-06T12:54:13;5.80;;;5.17;;
29362;SDS011;16349;53.672;10.014;2023-04-06T12:56:40;7.37;;;5.43;;
29362;SDS011;16349;53.672;10.014;2023-04-06T12:59:06;5.13;;;4.57;;
29362;SDS011;16349;53.672;10.014;2023-04-06T13:01:34;5.33;;;4.63;;
29362;SDS011;16349;53.672;10.014;2023-04-06T13:04:00;5.60;;;5.10;;
29362;SDS011;16349;53.672;10.014;2023-04-06T13:06:27;6.60;;;5.10;;
29362;SDS011;16349;53.672;10.014;2023-04-06T13:08:55;5.83;;;5.17;;
29362;SDS011;16349;53.672;10.014;2023-04-06T13:11:25;7.17;;;4.90;;
29362;SDS011;16349;53.672;10.014;2023-04-06T13:13:51;6.63;;;4.60;;
29362;SDS011;16349;53.672;10.014;2023-04-06T13:16:18;5.97;;;4.90;;
29362;SDS011;16349;53.672;10.014;2023-04-06T13:18:45;5.93;;;5.27;;
29362;SDS011;16349;53.672;10.014;2023-04-06T13:21:13;8.33;;;5.50;;
29362;SDS011;16349;53.672;10.014;2023-04-06T13:23:42;5.87;;;5.10;;
29362;SDS011;16349;53.672;10.014;2023-04-06T13:26:09;6.70;;;5.50;;
29362;SDS011;16349;53.672;10.014;2023-04-06T13:28:37;5.93;;;5.33;;
29362;SDS011;16349;53.672;10.014;2023-04-06T13:31:04;6.53;;;5.20;;
29362;SDS011;16349;53.672;10.014;2023-04-06T13:33:32;5.17;;;4.67;;
29362;SDS011;16349;53.672;10.014;2023-04-06T13:35:59;5.73;;;5.17;;
29362;SDS011;16349;53.672;10.014;2023-04-06T13:38:26;5.60;;;5.10;;
29362;SDS011;16349;53.672;10.014;2023-04-06T13:40:53;5.73;;;5.03;;
29362;SDS011;16349;53.672;10.014;2023-04-06T13:43:21;6.80;;;5.23;;
29362;SDS011;16349;53.672;10.014;2023-04-06T13:45:49;7.23;;;5.20;;
29362;SDS011;16349;53.672;10.014;2023-04-06T13:48:18;5.57;;;5.07;;
29362;SDS011;16349;53.672;10.014;2023-04-06T13:50:44;6.37;;;5.37;;
29362;SDS011;16349;53.672;10.014;2023-04-06T13:53:11;6.03;;;5.53;;
29362;SDS011;16349;53.672;10.014;2023-04-06T13:55:39;7.00;;;5.13;;
29362;SDS011;16349;53.672;10.014;2023-04-06T13:58:06;5.90;;;5.33;;
29362;SDS011;16349;53.672;10.014;2023-04-06T14:00:32;5.80;;;5.20;;
29362;SDS011;16349;53.672;10.014;2023-04-06T14:03:00;5.83;;;5.33;;
29362;SDS011;16349;53.672;10.014;2023-04-06T14:05:30;6.43;;;4.90;;
29362;SDS011;16349;53.672;10.014;2023-04-06T14:07:58;6.27;;;5.50;;
29362;SDS011;16349;53.672;10.014;2023-04-06T14:10:25;6.70;;;5.57;;
29362;SDS011;16349;53.672;10.014;2023-04-06T14:12:53;6.17;;;5.60;;
29362;SDS011;16349;53.672;10.014;2023-04-06T14:15:21;6.20;;;5.60;;
29362;SDS011;16349;53.672;10.014;2023-04-06T14:17:48;6.47;;;5.87;;
29362;SDS011;16349;53.672;10.014;2023-04-06T14:20:17;5.83;;;5.23;;
29362;SDS011;16349;53.672;10.014;2023-04-06T14:22:45;6.53;;;5.13;;
29362;SDS011;16349;53.672;10.014;2023-04-06T14:25:14;6.93;;;5.40;;
29362;SDS011;16349;53.672;10.014;2023-04-06T14:27:41;7.37;;;5.60;;
29362;SDS011;16349;53.672;10.014;2023-04-06T14:30:08;5.97;;;5.47;;
29362;SDS011;16349;53.672;10.014;2023-04-06T14:32:36;6.17;;;5.30;;
29362;SDS011;16349;53.672;10.014;2023-04-06T14:35:03;5.77;;;5.27;;
29362;SDS011;16349;53.672;10.014;2023-04-06T14:37:32;6.10;;;5.50;;
29362;SDS011;16349;53.672;10.014;2023-04-06T14:39:59;6.47;;;5.87;;
29362;SDS011;16349;53.672;10.014;2023-04-06T14:42:28;5.70;;;5.30;;
29362;SDS011;16349;53.672;10.014;2023-04-06T14:44:54;6.37;;;5.73;;